sensor_id;sensor_type;location;lat;lon;timestamp;pressure;altitude;pressure_sealevel;temperature
17142;BMP180;32805;53.556;9.944;2022-08-20T00:02:12;101085.00;;;19.90
17142;BMP180;32805;53.556;9.944;2022-08-20T00:04:42;101090.00;;;19.80
17142;BMP180;32805;53.556;9.944;2022-08-20T00:07:10;101088.00;;;19.90
17142;BMP180;32805;53.556;9.944;2022-08-20T00:09:39;101081.00;;;19.80
17142;BMP180;32805;53.556;9.944;2022-08-20T00:12:08;101073.00;;;19.80
17142;BMP180;32805;53.556;9.944;2022-08-20T00:14:38;101085.00;;;19.90
17142;BMP180;32805;53.556;9.944;2022-08-20T00:17:06;101086.00;;;19.90
17142;BMP180;32805;53.556;9.944;2022-08-20T00:19:33;101085.00;;;19.80
17142;BMP180;32805;53.556;9.944;2022-08-20T00:22:03;101075.00;;;19.80
17142;BMP180;32805;53.556;9.944;2022-08-20T00:24:31;101082.00;;;19.80
17142;BMP180;32805;53.556;9.944;2022-08-20T00:27:00;101088.00;;;20.00
17142;BMP180;32805;53.556;9.944;2022-08-20T00:29:28;101074.00;;;20.00
17142;BMP180;32805;53.556;9.944;2022-08-20T00:31:58;101079.00;;;19.90
17142;BMP180;32805;53.556;9.944;2022-08-20T00:34:26;101079.00;;;19.90
17142;BMP180;32805;53.556;9.944;2022-08-20T00:36:54;101073.00;;;19.90
17142;BMP180;32805;53.556;9.944;2022-08-20T00:39:24;101078.00;;;19.90
17142;BMP180;32805;53.556;9.944;2022-08-20T00:41:51;101070.00;;;19.80
17142;BMP180;32805;53.556;9.944;2022-08-20T00:44:20;101081.00;;;19.70
17142;BMP180;32805;53.556;9.944;2022-08-20T00:46:49;101084.00;;;19.80
17142;BMP180;32805;53.556;9.944;2022-08-20T00:49:19;101092.00;;;19.90
17142;BMP180;32805;53.556;9.944;2022-08-20T00:51:53;101076.00;;;19.90
17142;BMP180;32805;53.556;9.944;2022-08-20T00:54:27;101082.00;;;19.90
17142;BMP180;32805;53.556;9.944;2022-08-20T00:57:00;101081.00;;;19.90
17142;BMP180;32805;53.556;9.944;2022-08-20T00:59:32;101080.00;;;19.90
17142;BMP180;32805;53.556;9.944;2022-08-20T01:02:03;101066.00;;;19.90
17142;BMP180;32805;53.556;9.944;2022-08-20T01:04:35;101066.00;;;19.90
17142;BMP180;32805;53.556;9.944;2022-08-20T01:07:04;101073.00;;;19.80
17142;BMP180;32805;53.556;9.944;2022-08-20T01:09:34;101087.00;;;19.80
17142;BMP180;32805;53.556;9.944;2022-08-20T01:12:22;101070.00;;;19.80
17142;BMP180;32805;53.556;9.944;2022-08-20T01:14:51;101084.00;;;19.80
17142;BMP180;32805;53.556;9.944;2022-08-20T01:17:24;101081.00;;;19.80
17142;BMP180;32805;53.556;9.944;2022-08-20T01:19:57;101086.00;;;19.70
17142;BMP180;32805;53.556;9.944;2022-08-20T01:22:31;101090.00;;;19.70
17142;BMP180;32805;53.556;9.944;2022-08-20T01:25:26;101092.00;;;19.80
17142;BMP180;32805;53.556;9.944;2022-08-20T01:27:56;101093.00;;;19.70
17142;BMP180;32805;53.556;9.944;2022-08-20T01:30:28;101101.00;;;19.70
17142;BMP180;32805;53.556;9.944;2022-08-20T01:32:58;101086.00;;;19.70
17142;BMP180;32805;53.556;9.944;2022-08-20T01:35:28;101102.00;;;19.70
17142;BMP180;32805;53.556;9.944;2022-08-20T01:37:56;101107.00;;;19.60
17142;BMP180;32805;53.556;9.944;2022-08-20T01:40:37;101108.00;;;19.70
17142;BMP180;32805;53.556;9.944;2022-08-20T01:43:09;101111.00;;;19.60
17142;BMP180;32805;53.556;9.944;2022-08-20T01:45:39;101109.00;;;19.60
17142;BMP180;32805;53.556;9.944;2022-08-20T01:48:09;101107.00;;;19.60
17142;BMP180;32805;53.556;9.944;2022-08-20T01:50:41;101106.00;;;19.70
17142;BMP180;32805;53.556;9.944;2022-08-20T01:53:15;101111.00;;;19.80
17142;BMP180;32805;53.556;9.944;2022-08-20T01:55:44;101089.00;;;19.90
17142;BMP180;32805;53.556;9.944;2022-08-20T01:58:13;101099.00;;;19.90
17142;BMP180;32805;53.556;9.944;2022-08-20T02:00:42;101108.00;;;19.80
17142;BMP180;32805;53.556;9.944;2022-08-20T02:03:10;101096.00;;;19.90
17142;BMP180;32805;53.556;9.944;2022-08-20T02:05:38;101109.00;;;19.80
17142;BMP180;32805;53.556;9.944;2022-08-20T02:08:06;101104.00;;;19.70
17142;BMP180;32805;53.556;9.944;2022-08-20T02:10:34;101108.00;;;19.70
17142;BMP180;32805;53.556;9.944;2022-08-20T02:13:03;101114.00;;;19.70
17142;BMP180;32805;53.556;9.944;2022-08-20T02:15:34;101121.00;;;19.60
17142;BMP180;32805;53.556;9.944;2022-08-20T02:18:09;101112.00;;;19.60
17142;BMP180;32805;53.556;9.944;2022-08-20T02:20:38;101111.00;;;19.70
17142;BMP180;32805;53.556;9.944;2022-08-20T02:23:07;101115.00;;;19.70
17142;BMP180;32805;53.556;9.944;2022-08-20T02:25:36;101105.00;;;19.70
17142;BMP180;32805;53.556;9.944;2022-08-20T02:28:09;101112.00;;;19.70
17142;BMP180;32805;53.556;9.944;2022-08-20T02:30:42;101113.00;;;19.60
17142;BMP180;32805;53.556;9.944;2022-08-20T02:33:13;101112.00;;;19.60
17142;BMP180;32805;53.556;9.944;2022-08-20T02:35:44;101116.00;;;19.70
17142;BMP180;32805;53.556;9.944;2022-08-20T02:38:14;101117.00;;;19.60
17142;BMP180;32805;53.556;9.944;2022-08-20T02:40:43;101117.00;;;19.70
17142;BMP180;32805;53.556;9.944;2022-08-20T02:43:11;101123.00;;;19.80
17142;BMP180;32805;53.556;9.944;2022-08-20T02:45:41;101124.00;;;19.80
17142;BMP180;32805;53.556;9.944;2022-08-20T02:48:12;101115.00;;;19.70
17142;BMP180;32805;53.556;9.944;2022-08-20T02:50:48;101123.00;;;19.60
17142;BMP180;32805;53.556;9.944;2022-08-20T02:53:17;101119.00;;;19.70
17142;BMP180;32805;53.556;9.944;2022-08-20T02:55:45;101114.00;;;19.60
17142;BMP180;32805;53.556;9.944;2022-08-20T02:58:13;101119.00;;;19.50
17142;BMP180;32805;53.556;9.944;2022-08-20T03:00:44;101105.00;;;19.50
17142;BMP180;32805;53.556;9.944;2022-08-20T03:03:13;101106.00;;;19.50
17142;BMP180;32805;53.556;9.944;2022-08-20T03:05:43;101082.00;;;19.50
17142;BMP180;32805;53.556;9.944;2022-08-20T03:08:12;101115.00;;;19.50
17142;BMP180;32805;53.556;9.944;2022-08-20T03:10:43;101119.00;;;19.40
17142;BMP180;32805;53.556;9.944;2022-08-20T03:13:13;101108.00;;;19.40
17142;BMP180;32805;53.556;9.944;2022-08-20T03:15:45;101110.00;;;19.40
17142;BMP180;32805;53.556;9.944;2022-08-20T03:18:15;101111.00;;;19.50
17142;BMP180;32805;53.556;9.944;2022-08-20T03:20:43;101101.00;;;19.40
17142;BMP180;32805;53.556;9.944;2022-08-20T03:23:18;101102.00;;;19.40
17142;BMP180;32805;53.556;9.944;2022-08-20T03:25:46;101106.00;;;19.50
17142;BMP180;32805;53.556;9.944;2022-08-20T03:28:15;101093.00;;;19.40
17142;BMP180;32805;53.556;9.944;2022-08-20T03:30:46;101112.00;;;19.60
17142;BMP180;32805;53.556;9.944;2022-08-20T03:33:14;101105.00;;;19.60
17142;BMP180;32805;53.556;9.944;2022-08-20T03:35:42;101112.00;;;19.60
17142;BMP180;32805;53.556;9.944;2022-08-20T03:38:12;101116.00;;;19.40
17142;BMP180;32805;53.556;9.944;2022-08-20T03:40:41;101114.00;;;19.40
17142;BMP180;32805;53.556;9.944;2022-08-20T03:43:10;101121.00;;;19.30
17142;BMP180;32805;53.556;9.944;2022-08-20T03:45:40;101124.00;;;19.30
17142;BMP180;32805;53.556;9.944;2022-08-20T03:48:12;101119.00;;;19.30
17142;BMP180;32805;53.556;9.944;2022-08-20T03:50:42;101125.00;;;19.30
17142;BMP180;32805;53.556;9.944;2022-08-20T03:53:11;101132.00;;;19.40
17142;BMP180;32805;53.556;9.944;2022-08-20T03:55:41;101143.00;;;19.60
17142;BMP180;32805;53.556;9.944;2022-08-20T03:58:11;101137.00;;;19.70
17142;BMP180;32805;53.556;9.944;2022-08-20T04:00:45;101142.00;;;19.50
17142;BMP180;32805;53.556;9.944;2022-08-20T04:03:15;101152.00;;;19.30
17142;BMP180;32805;53.556;9.944;2022-08-20T04:05:43;101154.00;;;19.50
17142;BMP180;32805;53.556;9.944;2022-08-20T04:08:15;101157.00;;;19.60
17142;BMP180;32805;53.556;9.944;2022-08-20T04:10:44;101155.00;;;19.50
17142;BMP180;32805;53.556;9.944;2022-08-20T04:13:13;101160.00;;;19.40
17142;BMP180;32805;53.556;9.944;2022-08-20T04:15:43;101155.00;;;19.40
17142;BMP180;32805;53.556;9.944;2022-08-20T04:18:12;101160.00;;;19.40
17142;BMP180;32805;53.556;9.944;2022-08-20T04:20:42;101151.00;;;19.30
17142;BMP180;32805;53.556;9.944;2022-08-20T04:23:10;101169.00;;;19.20
17142;BMP180;32805;53.556;9.944;2022-08-20T04:25:40;101156.00;;;19.30
17142;BMP180;32805;53.556;9.944;2022-08-20T04:28:13;101152.00;;;19.30
17142;BMP180;32805;53.556;9.944;2022-08-20T04:30:41;101166.00;;;19.20
17142;BMP180;32805;53.556;9.944;2022-08-20T04:33:17;101171.00;;;19.20
17142;BMP180;32805;53.556;9.944;2022-08-20T04:36:02;101161.00;;;19.00
17142;BMP180;32805;53.556;9.944;2022-08-20T04:38:32;101162.00;;;19.20
17142;BMP180;32805;53.556;9.944;2022-08-20T04:41:15;101171.00;;;19.20
17142;BMP180;32805;53.556;9.944;2022-08-20T04:43:48;101166.00;;;19.20
17142;BMP180;32805;53.556;9.944;2022-08-20T04:46:16;101174.00;;;19.20
17142;BMP180;32805;53.556;9.944;2022-08-20T04:48:45;101168.00;;;19.20
17142;BMP180;32805;53.556;9.944;2022-08-20T04:51:17;101164.00;;;19.20
17142;BMP180;32805;53.556;9.944;2022-08-20T04:53:49;101177.00;;;19.10
17142;BMP180;32805;53.556;9.944;2022-08-20T04:56:20;101174.00;;;19.10
17142;BMP180;32805;53.556;9.944;2022-08-20T04:58:50;101178.00;;;19.00
17142;BMP180;32805;53.556;9.944;2022-08-20T05:01:18;101184.00;;;18.90
17142;BMP180;32805;53.556;9.944;2022-08-20T05:03:46;101179.00;;;19.00
17142;BMP180;32805;53.556;9.944;2022-08-20T05:06:15;101171.00;;;19.00
17142;BMP180;32805;53.556;9.944;2022-08-20T05:08:45;101179.00;;;18.90
17142;BMP180;32805;53.556;9.944;2022-08-20T05:11:13;101174.00;;;18.90
17142;BMP180;32805;53.556;9.944;2022-08-20T05:14:01;101180.00;;;19.00
17142;BMP180;32805;53.556;9.944;2022-08-20T05:16:29;101176.00;;;19.00
17142;BMP180;32805;53.556;9.944;2022-08-20T05:19:04;101167.00;;;19.00
17142;BMP180;32805;53.556;9.944;2022-08-20T05:21:32;101170.00;;;19.00
17142;BMP180;32805;53.556;9.944;2022-08-20T05:24:02;101174.00;;;19.00
17142;BMP180;32805;53.556;9.944;2022-08-20T05:26:29;101167.00;;;19.10
17142;BMP180;32805;53.556;9.944;2022-08-20T05:28:58;101165.00;;;19.10
17142;BMP180;32805;53.556;9.944;2022-08-20T05:31:26;101168.00;;;19.10
17142;BMP180;32805;53.556;9.944;2022-08-20T05:34:00;101184.00;;;19.20
17142;BMP180;32805;53.556;9.944;2022-08-20T05:36:28;101184.00;;;19.20
17142;BMP180;32805;53.556;9.944;2022-08-20T05:38:56;101178.00;;;19.10
17142;BMP180;32805;53.556;9.944;2022-08-20T05:41:26;101178.00;;;19.00
17142;BMP180;32805;53.556;9.944;2022-08-20T05:43:57;101182.00;;;19.30
17142;BMP180;32805;53.556;9.944;2022-08-20T05:46:27;101181.00;;;19.30
17142;BMP180;32805;53.556;9.944;2022-08-20T05:48:57;101189.00;;;19.40
17142;BMP180;32805;53.556;9.944;2022-08-20T05:51:26;101180.00;;;19.30
17142;BMP180;32805;53.556;9.944;2022-08-20T05:53:54;101175.00;;;19.30
17142;BMP180;32805;53.556;9.944;2022-08-20T05:56:26;101190.00;;;19.20
17142;BMP180;32805;53.556;9.944;2022-08-20T05:58:58;101189.00;;;19.10
17142;BMP180;32805;53.556;9.944;2022-08-20T06:01:30;101179.00;;;19.10
17142;BMP180;32805;53.556;9.944;2022-08-20T06:03:59;101188.00;;;19.20
17142;BMP180;32805;53.556;9.944;2022-08-20T06:06:44;101185.00;;;19.10
17142;BMP180;32805;53.556;9.944;2022-08-20T06:09:15;101173.00;;;19.10
17142;BMP180;32805;53.556;9.944;2022-08-20T06:12:00;101182.00;;;19.10
17142;BMP180;32805;53.556;9.944;2022-08-20T06:14:29;101186.00;;;19.20
17142;BMP180;32805;53.556;9.944;2022-08-20T06:17:03;101176.00;;;19.20
17142;BMP180;32805;53.556;9.944;2022-08-20T06:19:32;101186.00;;;19.20
17142;BMP180;32805;53.556;9.944;2022-08-20T06:22:00;101185.00;;;19.40
17142;BMP180;32805;53.556;9.944;2022-08-20T06:24:47;101187.00;;;19.30
17142;BMP180;32805;53.556;9.944;2022-08-20T06:27:16;101189.00;;;19.30
17142;BMP180;32805;53.556;9.944;2022-08-20T06:29:45;101186.00;;;19.30
17142;BMP180;32805;53.556;9.944;2022-08-20T06:32:13;101176.00;;;19.30
17142;BMP180;32805;53.556;9.944;2022-08-20T06:34:41;101182.00;;;19.40
17142;BMP180;32805;53.556;9.944;2022-08-20T06:37:19;101191.00;;;19.40
17142;BMP180;32805;53.556;9.944;2022-08-20T06:39:47;101184.00;;;19.40
17142;BMP180;32805;53.556;9.944;2022-08-20T06:42:17;101188.00;;;19.40
17142;BMP180;32805;53.556;9.944;2022-08-20T06:44:48;101178.00;;;19.40
17142;BMP180;32805;53.556;9.944;2022-08-20T06:47:18;101184.00;;;19.60
17142;BMP180;32805;53.556;9.944;2022-08-20T06:49:46;101191.00;;;19.60
17142;BMP180;32805;53.556;9.944;2022-08-20T06:52:14;101191.00;;;19.70
17142;BMP180;32805;53.556;9.944;2022-08-20T06:54:43;101185.00;;;20.00
17142;BMP180;32805;53.556;9.944;2022-08-20T06:57:11;101201.00;;;20.10
17142;BMP180;32805;53.556;9.944;2022-08-20T06:59:40;101200.00;;;20.10
17142;BMP180;32805;53.556;9.944;2022-08-20T07:02:08;101190.00;;;20.20
17142;BMP180;32805;53.556;9.944;2022-08-20T07:04:36;101195.00;;;20.20
17142;BMP180;32805;53.556;9.944;2022-08-20T07:07:04;101189.00;;;20.30
17142;BMP180;32805;53.556;9.944;2022-08-20T07:09:32;101196.00;;;20.20
17142;BMP180;32805;53.556;9.944;2022-08-20T07:12:01;101201.00;;;20.20
17142;BMP180;32805;53.556;9.944;2022-08-20T07:14:29;101201.00;;;20.20
17142;BMP180;32805;53.556;9.944;2022-08-20T07:17:01;101208.00;;;20.20
17142;BMP180;32805;53.556;9.944;2022-08-20T07:19:29;101206.00;;;20.40
17142;BMP180;32805;53.556;9.944;2022-08-20T07:21:57;101210.00;;;20.40
17142;BMP180;32805;53.556;9.944;2022-08-20T07:24:30;101221.00;;;20.50
17142;BMP180;32805;53.556;9.944;2022-08-20T07:27:00;101216.00;;;20.70
17142;BMP180;32805;53.556;9.944;2022-08-20T07:29:28;101212.00;;;20.80
17142;BMP180;32805;53.556;9.944;2022-08-20T07:32:17;101213.00;;;21.00
17142;BMP180;32805;53.556;9.944;2022-08-20T07:35:05;101210.00;;;20.90
17142;BMP180;32805;53.556;9.944;2022-08-20T07:37:37;101215.00;;;20.90
17142;BMP180;32805;53.556;9.944;2022-08-20T07:40:07;101217.00;;;21.00
17142;BMP180;32805;53.556;9.944;2022-08-20T07:42:36;101228.00;;;21.10
17142;BMP180;32805;53.556;9.944;2022-08-20T07:45:05;101224.00;;;20.90
17142;BMP180;32805;53.556;9.944;2022-08-20T07:47:38;101229.00;;;20.90
17142;BMP180;32805;53.556;9.944;2022-08-20T07:50:08;101223.00;;;20.80
17142;BMP180;32805;53.556;9.944;2022-08-20T07:52:37;101232.00;;;20.70
17142;BMP180;32805;53.556;9.944;2022-08-20T07:55:07;101232.00;;;20.60
17142;BMP180;32805;53.556;9.944;2022-08-20T07:57:36;101238.00;;;20.70
17142;BMP180;32805;53.556;9.944;2022-08-20T08:00:06;101231.00;;;20.80
17142;BMP180;32805;53.556;9.944;2022-08-20T08:02:35;101234.00;;;20.90
17142;BMP180;32805;53.556;9.944;2022-08-20T08:05:05;101234.00;;;21.20
17142;BMP180;32805;53.556;9.944;2022-08-20T08:07:34;101242.00;;;21.30
17142;BMP180;32805;53.556;9.944;2022-08-20T08:10:05;101241.00;;;21.40
17142;BMP180;32805;53.556;9.944;2022-08-20T08:12:36;101244.00;;;21.50
17142;BMP180;32805;53.556;9.944;2022-08-20T08:15:08;101247.00;;;21.60
17142;BMP180;32805;53.556;9.944;2022-08-20T08:17:36;101249.00;;;21.60
17142;BMP180;32805;53.556;9.944;2022-08-20T08:20:07;101251.00;;;21.50
17142;BMP180;32805;53.556;9.944;2022-08-20T08:22:38;101250.00;;;21.50
17142;BMP180;32805;53.556;9.944;2022-08-20T08:25:10;101256.00;;;21.60
17142;BMP180;32805;53.556;9.944;2022-08-20T08:27:38;101257.00;;;21.60
17142;BMP180;32805;53.556;9.944;2022-08-20T08:30:08;101254.00;;;21.70
17142;BMP180;32805;53.556;9.944;2022-08-20T08:32:36;101250.00;;;21.90
17142;BMP180;32805;53.556;9.944;2022-08-20T08:35:25;101249.00;;;22.00
17142;BMP180;32805;53.556;9.944;2022-08-20T08:37:53;101247.00;;;21.90
17142;BMP180;32805;53.556;9.944;2022-08-20T08:40:21;101251.00;;;21.90
17142;BMP180;32805;53.556;9.944;2022-08-20T08:42:51;101237.00;;;21.80
17142;BMP180;32805;53.556;9.944;2022-08-20T08:45:28;101242.00;;;21.90
17142;BMP180;32805;53.556;9.944;2022-08-20T08:47:58;101245.00;;;21.90
17142;BMP180;32805;53.556;9.944;2022-08-20T08:50:30;101238.00;;;21.90
17142;BMP180;32805;53.556;9.944;2022-08-20T08:53:21;101243.00;;;22.00
17142;BMP180;32805;53.556;9.944;2022-08-20T08:55:51;101250.00;;;22.00
17142;BMP180;32805;53.556;9.944;2022-08-20T08:58:18;101243.00;;;22.10
17142;BMP180;32805;53.556;9.944;2022-08-20T09:00:46;101242.00;;;22.10
17142;BMP180;32805;53.556;9.944;2022-08-20T09:03:25;101247.00;;;22.20
17142;BMP180;32805;53.556;9.944;2022-08-20T09:06:03;101258.00;;;22.20
17142;BMP180;32805;53.556;9.944;2022-08-20T09:08:35;101252.00;;;22.10
17142;BMP180;32805;53.556;9.944;2022-08-20T09:11:06;101265.00;;;22.10
17142;BMP180;32805;53.556;9.944;2022-08-20T09:13:34;101269.00;;;22.10
17142;BMP180;32805;53.556;9.944;2022-08-20T09:16:02;101267.00;;;22.00
17142;BMP180;32805;53.556;9.944;2022-08-20T09:18:30;101271.00;;;22.00
17142;BMP180;32805;53.556;9.944;2022-08-20T09:21:00;101273.00;;;22.00
17142;BMP180;32805;53.556;9.944;2022-08-20T09:23:27;101274.00;;;21.90
17142;BMP180;32805;53.556;9.944;2022-08-20T09:25:55;101278.00;;;22.00
17142;BMP180;32805;53.556;9.944;2022-08-20T09:28:23;101276.00;;;22.10
17142;BMP180;32805;53.556;9.944;2022-08-20T09:31:01;101274.00;;;22.20
17142;BMP180;32805;53.556;9.944;2022-08-20T09:33:30;101268.00;;;22.40
17142;BMP180;32805;53.556;9.944;2022-08-20T09:35:58;101269.00;;;22.70
17142;BMP180;32805;53.556;9.944;2022-08-20T09:38:27;101262.00;;;22.80
17142;BMP180;32805;53.556;9.944;2022-08-20T09:40:54;101268.00;;;22.80
17142;BMP180;32805;53.556;9.944;2022-08-20T09:43:22;101257.00;;;22.70
17142;BMP180;32805;53.556;9.944;2022-08-20T09:45:50;101270.00;;;22.60
17142;BMP180;32805;53.556;9.944;2022-08-20T09:48:18;101266.00;;;22.70
17142;BMP180;32805;53.556;9.944;2022-08-20T09:50:55;101265.00;;;22.70
17142;BMP180;32805;53.556;9.944;2022-08-20T09:53:23;101272.00;;;22.70
17142;BMP180;32805;53.556;9.944;2022-08-20T09:55:53;101272.00;;;22.70
17142;BMP180;32805;53.556;9.944;2022-08-20T09:58:24;101268.00;;;22.90
17142;BMP180;32805;53.556;9.944;2022-08-20T10:00:53;101260.00;;;23.20
17142;BMP180;32805;53.556;9.944;2022-08-20T10:03:21;101269.00;;;23.10
17142;BMP180;32805;53.556;9.944;2022-08-20T10:05:49;101275.00;;;23.00
17142;BMP180;32805;53.556;9.944;2022-08-20T10:08:16;101274.00;;;23.10
17142;BMP180;32805;53.556;9.944;2022-08-20T10:10:44;101270.00;;;23.00
17142;BMP180;32805;53.556;9.944;2022-08-20T10:13:13;101267.00;;;22.80
17142;BMP180;32805;53.556;9.944;2022-08-20T10:15:41;101279.00;;;22.60
17142;BMP180;32805;53.556;9.944;2022-08-20T10:18:10;101286.00;;;22.70
17142;BMP180;32805;53.556;9.944;2022-08-20T10:20:38;101280.00;;;22.70
17142;BMP180;32805;53.556;9.944;2022-08-20T10:23:06;101275.00;;;22.80
17142;BMP180;32805;53.556;9.944;2022-08-20T10:25:34;101284.00;;;22.60
17142;BMP180;32805;53.556;9.944;2022-08-20T10:28:02;101277.00;;;22.70
17142;BMP180;32805;53.556;9.944;2022-08-20T10:30:32;101285.00;;;22.80
17142;BMP180;32805;53.556;9.944;2022-08-20T10:33:00;101273.00;;;22.90
17142;BMP180;32805;53.556;9.944;2022-08-20T10:35:28;101286.00;;;22.90
17142;BMP180;32805;53.556;9.944;2022-08-20T10:37:56;101280.00;;;22.80
17142;BMP180;32805;53.556;9.944;2022-08-20T10:40:24;101273.00;;;22.90
17142;BMP180;32805;53.556;9.944;2022-08-20T10:42:52;101287.00;;;23.00
17142;BMP180;32805;53.556;9.944;2022-08-20T10:45:20;101303.00;;;23.00
17142;BMP180;32805;53.556;9.944;2022-08-20T10:47:49;101296.00;;;23.20
17142;BMP180;32805;53.556;9.944;2022-08-20T10:50:17;101294.00;;;23.40
17142;BMP180;32805;53.556;9.944;2022-08-20T10:52:46;101307.00;;;23.10
17142;BMP180;32805;53.556;9.944;2022-08-20T10:55:14;101313.00;;;23.00
17142;BMP180;32805;53.556;9.944;2022-08-20T10:57:42;101311.00;;;22.80
17142;BMP180;32805;53.556;9.944;2022-08-20T11:00:12;101312.00;;;22.80
17142;BMP180;32805;53.556;9.944;2022-08-20T11:02:40;101309.00;;;22.80
17142;BMP180;32805;53.556;9.944;2022-08-20T11:05:09;101310.00;;;22.80
17142;BMP180;32805;53.556;9.944;2022-08-20T11:07:39;101302.00;;;23.10
17142;BMP180;32805;53.556;9.944;2022-08-20T11:10:22;101303.00;;;23.30
17142;BMP180;32805;53.556;9.944;2022-08-20T11:12:51;101313.00;;;23.40
17142;BMP180;32805;53.556;9.944;2022-08-20T11:15:18;101313.00;;;23.30
17142;BMP180;32805;53.556;9.944;2022-08-20T11:17:46;101316.00;;;23.30
17142;BMP180;32805;53.556;9.944;2022-08-20T11:20:18;101309.00;;;23.20
17142;BMP180;32805;53.556;9.944;2022-08-20T11:22:47;101314.00;;;23.20
17142;BMP180;32805;53.556;9.944;2022-08-20T11:25:15;101312.00;;;23.20
17142;BMP180;32805;53.556;9.944;2022-08-20T11:27:45;101316.00;;;23.10
17142;BMP180;32805;53.556;9.944;2022-08-20T11:30:17;101312.00;;;22.90
17142;BMP180;32805;53.556;9.944;2022-08-20T11:32:45;101318.00;;;22.80
17142;BMP180;32805;53.556;9.944;2022-08-20T11:35:14;101315.00;;;22.80
17142;BMP180;32805;53.556;9.944;2022-08-20T11:38:04;101313.00;;;22.70
17142;BMP180;32805;53.556;9.944;2022-08-20T11:40:32;101307.00;;;22.60
17142;BMP180;32805;53.556;9.944;2022-08-20T11:43:00;101303.00;;;22.60
17142;BMP180;32805;53.556;9.944;2022-08-20T11:45:45;101308.00;;;22.80
17142;BMP180;32805;53.556;9.944;2022-08-20T11:48:14;101309.00;;;22.90
17142;BMP180;32805;53.556;9.944;2022-08-20T11:50:42;101311.00;;;22.80
17142;BMP180;32805;53.556;9.944;2022-08-20T11:53:11;101318.00;;;22.80
17142;BMP180;32805;53.556;9.944;2022-08-20T11:55:41;101313.00;;;22.70
17142;BMP180;32805;53.556;9.944;2022-08-20T11:58:09;101314.00;;;22.90
17142;BMP180;32805;53.556;9.944;2022-08-20T12:00:38;101311.00;;;22.90
17142;BMP180;32805;53.556;9.944;2022-08-20T12:03:06;101319.00;;;22.80
17142;BMP180;32805;53.556;9.944;2022-08-20T12:05:38;101311.00;;;22.60
17142;BMP180;32805;53.556;9.944;2022-08-20T12:08:06;101313.00;;;22.70
17142;BMP180;32805;53.556;9.944;2022-08-20T12:10:37;101313.00;;;22.70
17142;BMP180;32805;53.556;9.944;2022-08-20T12:13:05;101309.00;;;22.70
17142;BMP180;32805;53.556;9.944;2022-08-20T12:15:33;101319.00;;;23.00
17142;BMP180;32805;53.556;9.944;2022-08-20T12:18:04;101310.00;;;23.10
17142;BMP180;32805;53.556;9.944;2022-08-20T12:20:32;101324.00;;;23.00
17142;BMP180;32805;53.556;9.944;2022-08-20T12:23:00;101313.00;;;22.80
17142;BMP180;32805;53.556;9.944;2022-08-20T12:25:28;101315.00;;;22.80
17142;BMP180;32805;53.556;9.944;2022-08-20T12:27:57;101322.00;;;22.90
17142;BMP180;32805;53.556;9.944;2022-08-20T12:30:26;101329.00;;;22.90
17142;BMP180;32805;53.556;9.944;2022-08-20T12:32:53;101321.00;;;23.00
17142;BMP180;32805;53.556;9.944;2022-08-20T12:35:22;101326.00;;;23.00
17142;BMP180;32805;53.556;9.944;2022-08-20T12:37:51;101322.00;;;23.10
17142;BMP180;32805;53.556;9.944;2022-08-20T12:40:23;101316.00;;;23.10
17142;BMP180;32805;53.556;9.944;2022-08-20T12:43:00;101319.00;;;22.90
17142;BMP180;32805;53.556;9.944;2022-08-20T12:45:28;101324.00;;;23.00
17142;BMP180;32805;53.556;9.944;2022-08-20T12:48:00;101331.00;;;23.10
17142;BMP180;32805;53.556;9.944;2022-08-20T12:50:28;101320.00;;;23.30
17142;BMP180;32805;53.556;9.944;2022-08-20T12:52:57;101314.00;;;23.40
17142;BMP180;32805;53.556;9.944;2022-08-20T12:55:25;101332.00;;;23.50
17142;BMP180;32805;53.556;9.944;2022-08-20T12:57:56;101320.00;;;23.50
17142;BMP180;32805;53.556;9.944;2022-08-20T13:00:29;101329.00;;;23.40
17142;BMP180;32805;53.556;9.944;2022-08-20T13:03:01;101331.00;;;23.40
17142;BMP180;32805;53.556;9.944;2022-08-20T13:05:30;101332.00;;;23.40
17142;BMP180;32805;53.556;9.944;2022-08-20T13:07:58;101324.00;;;23.50
17142;BMP180;32805;53.556;9.944;2022-08-20T13:10:28;101329.00;;;23.30
17142;BMP180;32805;53.556;9.944;2022-08-20T13:12:56;101320.00;;;23.40
17142;BMP180;32805;53.556;9.944;2022-08-20T13:15:26;101330.00;;;23.50
17142;BMP180;32805;53.556;9.944;2022-08-20T13:17:56;101333.00;;;23.60
17142;BMP180;32805;53.556;9.944;2022-08-20T13:20:25;101334.00;;;23.40
17142;BMP180;32805;53.556;9.944;2022-08-20T13:23:01;101334.00;;;23.40
17142;BMP180;32805;53.556;9.944;2022-08-20T13:25:29;101340.00;;;23.30
17142;BMP180;32805;53.556;9.944;2022-08-20T13:28:00;101326.00;;;23.50
17142;BMP180;32805;53.556;9.944;2022-08-20T13:30:32;101337.00;;;23.60
17142;BMP180;32805;53.556;9.944;2022-08-20T13:33:00;101339.00;;;23.50
17142;BMP180;32805;53.556;9.944;2022-08-20T13:35:28;101337.00;;;23.70
17142;BMP180;32805;53.556;9.944;2022-08-20T13:37:56;101340.00;;;23.50
17142;BMP180;32805;53.556;9.944;2022-08-20T13:40:24;101340.00;;;23.50
17142;BMP180;32805;53.556;9.944;2022-08-20T13:42:52;101325.00;;;23.30
17142;BMP180;32805;53.556;9.944;2022-08-20T13:45:20;101337.00;;;23.40
17142;BMP180;32805;53.556;9.944;2022-08-20T13:47:51;101330.00;;;23.10
17142;BMP180;32805;53.556;9.944;2022-08-20T13:50:21;101334.00;;;23.20
17142;BMP180;32805;53.556;9.944;2022-08-20T13:52:49;101332.00;;;23.30
17142;BMP180;32805;53.556;9.944;2022-08-20T13:55:19;101328.00;;;23.40
17142;BMP180;32805;53.556;9.944;2022-08-20T13:57:48;101321.00;;;23.50
17142;BMP180;32805;53.556;9.944;2022-08-20T14:00:18;101343.00;;;23.70
17142;BMP180;32805;53.556;9.944;2022-08-20T14:02:58;101335.00;;;23.50
17142;BMP180;32805;53.556;9.944;2022-08-20T14:05:26;101327.00;;;23.20
17142;BMP180;32805;53.556;9.944;2022-08-20T14:07:54;101329.00;;;23.10
17142;BMP180;32805;53.556;9.944;2022-08-20T14:10:24;101316.00;;;23.10
17142;BMP180;32805;53.556;9.944;2022-08-20T14:12:56;101331.00;;;23.30
17142;BMP180;32805;53.556;9.944;2022-08-20T14:15:25;101327.00;;;23.30